METAR COR LDZA 181230Z VRB04KT CAVOK 31/15 Q1016 NOSIG=
METAR LDZA 181200Z 22005KT 150V280 CAVOK 30/16 Q1016 NOSIG=
METAR LDZA 181130Z VRB04KT CAVOK 30/16 Q1017 NOSIG=
METAR LDZA 181100Z VRB03KT CAVOK 30/15 Q1017 NOSIG=
METAR LDZA 181030Z VRB03KT CAVOK 29/16 Q1017 NOSIG=
METAR LDZA 181000Z VRB03KT CAVOK 29/16 Q1017 NOSIG=
METAR LDZA 180930Z 19003KT 120V260 CAVOK 28/17 Q1017 NOSIG=
METAR LDZA 180900Z VRB01KT CAVOK 28/17 Q1017 NOSIG=
METAR LDZA 180830Z VRB02KT CAVOK 26/17 Q1017 NOSIG=
METAR LDZA 180800Z VRB01KT CAVOK 25/18 Q1017 NOSIG=
METAR LDZA 180730Z VRB01KT CAVOK 24/17 Q1018 NOSIG=
METAR LDZA 180700Z VRB02KT CAVOK 23/17 Q1018 NOSIG=
METAR COR LDZA 180630Z 00000KT CAVOK 22/17 Q1018 NOSIG=
METAR LDZA 180600Z 00000KT CAVOK 21/17 Q1018 NOSIG=
METAR LDZA 180530Z 00000KT CAVOK 20/17 Q1018 NOSIG=
METAR LDZA 180500Z VRB02KT CAVOK 19/16 Q1017 NOSIG=
METAR LDZA 180430Z 00000KT CAVOK 18/16 Q1017 NOSIG=
METAR LDZA 180400Z VRB01KT CAVOK 16/15 Q1017 NOSIG=
METAR LDZA 180330Z 00000KT CAVOK 16/14 Q1017 NOSIG=
METAR LDZA 180300Z 25002KT CAVOK 15/14 Q1017 NOSIG=
METAR LDZA 180230Z 00000KT CAVOK 16/14 Q1017 NOSIG=
METAR LDZA 180200Z 20003KT CAVOK 16/14 Q1017 NOSIG=
METAR LDZA 180130Z 00000KT CAVOK 17/15 Q1017 NOSIG=
METAR LDZA 180100Z 24002KT CAVOK 17/15 Q1017 NOSIG=
METAR LDZA 180030Z 00000KT CAVOK 17/15 Q1017 NOSIG=
METAR LDZA 180000Z 00000KT CAVOK 18/16 Q1017 NOSIG=
METAR LDZA 172330Z 00000KT CAVOK 18/16 Q1017 NOSIG=
METAR LDZA 172300Z 00000KT CAVOK 18/15 Q1017 NOSIG=
METAR LDZA 172230Z 00000KT CAVOK 19/15 Q1017 NOSIG=
METAR LDZA 172200Z VRB02KT CAVOK 20/15 Q1017 NOSIG=
METAR LDZA 172130Z VRB01KT CAVOK 21/16 Q1017 NOSIG=
METAR LDZA 172100Z 04003KT CAVOK 22/16 Q1017 NOSIG=
METAR LDZA 172030Z VRB02KT CAVOK 23/16 Q1017 NOSIG=
METAR COR LDZA 172000Z 00000KT CAVOK 24/15 Q1017 NOSIG=
METAR LDZA 171930Z 11002KT CAVOK 25/15 Q1017 NOSIG=
METAR LDZA 171900Z 11002KT CAVOK 26/15 Q1016 NOSIG=
METAR LDZA 171830Z 13002KT CAVOK 27/15 Q1016 NOSIG=
METAR LDZA 171800Z 12004KT CAVOK 27/15 Q1016 NOSIG=
METAR LDZA 171730Z 12005KT 080V150 CAVOK 28/14 Q1016 NOSIG=
METAR LDZA 171700Z VRB02KT CAVOK 29/14 Q1016 NOSIG=
METAR COR LDZA 171630Z 12004KT 080V160 CAVOK 29/15 Q1016 NOSIG=
METAR LDZA 171600Z VRB03KT CAVOK 30/14 Q1016 NOSIG=
METAR LDZA 171530Z VRB02KT CAVOK 30/14 Q1016 NOSIG=
METAR LDZA 171500Z VRB03KT CAVOK 30/14 Q1016 NOSIG=
METAR LDZA 171430Z VRB03KT CAVOK 31/14 Q1016 NOSIG=
METAR LDZA 171400Z VRB02KT CAVOK 31/15 Q1016 NOSIG=
METAR LDZA 171330Z 02005KT 300V110 CAVOK 30/12 Q1016 NOSIG=
METAR LDZA 171300Z 00000KT CAVOK 30/15 Q1017 NOSIG=
METAR LDZA 171230Z VRB02KT CAVOK 30/12 Q1017 NOSIG=
METAR LDZA 171200Z 15006KT 080V230 CAVOK 29/14 Q1017 NOSIG=
METAR LDZA 171130Z VRB04KT CAVOK 29/14 Q1017 NOSIG=
METAR LDZA 171100Z 08005KT 340V140 9999 FEW045 29/13 Q1017 NOSIG=
METAR LDZA 171030Z 14005KT 100V210 9999 FEW045 28/14 Q1018 NOSIG=
METAR LDZA 171000Z 12004KT 030V170 CAVOK 28/14 Q1018 NOSIG=
METAR LDZA 170930Z VRB01KT CAVOK 28/15 Q1018 NOSIG=
METAR LDZA 170900Z VRB02KT CAVOK 27/14 Q1018 NOSIG=
METAR LDZA 170830Z 00000KT CAVOK 26/16 Q1018 NOSIG=
METAR LDZA 170800Z 00000KT CAVOK 25/16 Q1018 NOSIG=
METAR LDZA 170730Z 00000KT CAVOK 24/16 Q1018 NOSIG=
METAR LDZA 170700Z 00000KT CAVOK 23/16 Q1018 NOSIG=
METAR LDZA 170630Z 00000KT CAVOK 21/16 Q1017 NOSIG=
METAR LDZA 170600Z 00000KT CAVOK 20/16 Q1017 NOSIG=
METAR LDZA 170530Z VRB02KT CAVOK 18/16 Q1017 NOSIG=
METAR LDZA 170500Z VRB02KT CAVOK 17/15 Q1017 NOSIG=
METAR LDZA 170430Z 00000KT CAVOK 16/14 Q1017 NOSIG=
METAR LDZA 170400Z 00000KT CAVOK 15/13 Q1017 NOSIG=
METAR LDZA 170330Z 00000KT CAVOK 14/13 Q1017 NOSIG=
METAR LDZA 170300Z 00000KT CAVOK 14/13 Q1017 NOSIG=
METAR LDZA 170230Z 00000KT CAVOK 14/13 Q1017 NOSIG=
METAR LDZA 170200Z 00000KT CAVOK 14/13 Q1017 NOSIG=
METAR LDZA 170130Z 00000KT CAVOK 15/13 Q1017 NOSIG=
METAR LDZA 170100Z 00000KT CAVOK 15/13 Q1017 NOSIG=